sensor_id;sensor_type;location;lat;lon;timestamp;P1;durP1;ratioP1;P2;durP2;ratioP2
48777;SDS011;34578;0.000;0.000;2022-11-21T00:04:18;2.58;;;0.90;;
48777;SDS011;34578;0.000;0.000;2022-11-21T00:09:18;1.03;;;0.70;;
48777;SDS011;34578;0.000;0.000;2022-11-21T00:14:18;3.20;;;0.67;;
48777;SDS011;34578;0.000;0.000;2022-11-21T00:19:19;1.93;;;0.60;;
48777;SDS011;34578;0.000;0.000;2022-11-21T00:24:19;1.57;;;0.60;;
48777;SDS011;34578;0.000;0.000;2022-11-21T00:29:19;1.57;;;0.60;;
48777;SDS011;34578;0.000;0.000;2022-11-21T00:34:20;1.97;;;0.97;;
48777;SDS011;34578;0.000;0.000;2022-11-21T00:39:20;1.10;;;0.50;;
48777;SDS011;34578;0.000;0.000;2022-11-21T00:44:20;1.20;;;0.63;;
48777;SDS011;34578;0.000;0.000;2022-11-21T00:49:21;3.83;;;0.93;;
48777;SDS011;34578;0.000;0.000;2022-11-21T00:54:21;2.83;;;0.97;;
48777;SDS011;34578;0.000;0.000;2022-11-21T00:59:22;0.93;;;0.53;;
48777;SDS011;34578;0.000;0.000;2022-11-21T01:04:22;4.27;;;0.97;;
48777;SDS011;34578;0.000;0.000;2022-11-21T01:09:22;0.88;;;0.50;;
48777;SDS011;34578;0.000;0.000;2022-11-21T01:14:23;3.30;;;0.97;;
48777;SDS011;34578;0.000;0.000;2022-11-21T01:19:23;1.25;;;0.65;;
48777;SDS011;34578;0.000;0.000;2022-11-21T01:24:24;1.60;;;0.47;;
48777;SDS011;34578;0.000;0.000;2022-11-21T01:29:24;2.07;;;0.83;;
48777;SDS011;34578;0.000;0.000;2022-11-21T01:34:26;2.53;;;0.70;;
48777;SDS011;34578;0.000;0.000;2022-11-21T01:39:26;10.25;;;0.88;;
48777;SDS011;34578;0.000;0.000;2022-11-21T01:44:44;4.33;;;1.10;;
48777;SDS011;34578;0.000;0.000;2022-11-21T01:49:47;8.80;;;0.77;;
48777;SDS011;34578;0.000;0.000;2022-11-21T01:54:49;5.13;;;0.90;;
48777;SDS011;34578;0.000;0.000;2022-11-21T02:00:04;2.93;;;0.57;;
48777;SDS011;34578;0.000;0.000;2022-11-21T02:05:06;0.80;;;0.50;;
48777;SDS011;34578;0.000;0.000;2022-11-21T02:10:10;3.42;;;0.93;;
48777;SDS011;34578;0.000;0.000;2022-11-21T02:15:11;4.85;;;0.65;;
48777;SDS011;34578;0.000;0.000;2022-11-21T02:20:13;1.13;;;0.40;;
48777;SDS011;34578;0.000;0.000;2022-11-21T02:25:19;3.47;;;0.75;;
48777;SDS011;34578;0.000;0.000;2022-11-21T02:30:20;2.00;;;0.90;;
48777;SDS011;34578;0.000;0.000;2022-11-21T02:35:21;1.35;;;0.80;;
48777;SDS011;34578;0.000;0.000;2022-11-21T02:40:23;1.85;;;0.57;;
48777;SDS011;34578;0.000;0.000;2022-11-21T02:45:29;2.60;;;0.80;;
48777;SDS011;34578;0.000;0.000;2022-11-21T02:50:34;2.72;;;0.70;;
48777;SDS011;34578;0.000;0.000;2022-11-21T02:55:36;4.25;;;1.13;;
48777;SDS011;34578;0.000;0.000;2022-11-21T03:00:38;3.35;;;0.38;;
48777;SDS011;34578;0.000;0.000;2022-11-21T03:05:39;1.48;;;0.68;;
48777;SDS011;34578;0.000;0.000;2022-11-21T03:10:40;0.77;;;0.40;;
48777;SDS011;34578;0.000;0.000;2022-11-21T03:15:40;2.33;;;0.93;;
48777;SDS011;34578;0.000;0.000;2022-11-21T03:20:40;1.53;;;0.87;;
48777;SDS011;34578;0.000;0.000;2022-11-21T03:25:41;1.33;;;0.40;;
48777;SDS011;34578;0.000;0.000;2022-11-21T03:30:41;1.75;;;0.40;;
48777;SDS011;34578;0.000;0.000;2022-11-21T03:35:41;0.63;;;0.50;;
48777;SDS011;34578;0.000;0.000;2022-11-21T03:40:42;1.43;;;0.40;;
48777;SDS011;34578;0.000;0.000;2022-11-21T03:45:44;2.30;;;0.60;;
48777;SDS011;34578;0.000;0.000;2022-11-21T03:50:46;3.28;;;0.50;;
48777;SDS011;34578;0.000;0.000;2022-11-21T03:55:46;2.23;;;0.60;;
48777;SDS011;34578;0.000;0.000;2022-11-21T04:00:47;1.73;;;0.47;;
48777;SDS011;34578;0.000;0.000;2022-11-21T04:05:47;0.50;;;0.30;;
48777;SDS011;34578;0.000;0.000;2022-11-21T04:10:48;1.42;;;0.60;;
48777;SDS011;34578;0.000;0.000;2022-11-21T04:15:49;2.72;;;0.55;;
48777;SDS011;34578;0.000;0.000;2022-11-21T04:20:56;1.60;;;0.50;;
48777;SDS011;34578;0.000;0.000;2022-11-21T04:25:57;2.30;;;0.60;;
48777;SDS011;34578;0.000;0.000;2022-11-21T04:31:05;0.90;;;0.50;;
48777;SDS011;34578;0.000;0.000;2022-11-21T04:36:06;1.80;;;0.50;;
48777;SDS011;34578;0.000;0.000;2022-11-21T04:41:08;1.75;;;0.50;;
48777;SDS011;34578;0.000;0.000;2022-11-21T04:46:08;0.50;;;0.30;;
48777;SDS011;34578;0.000;0.000;2022-11-21T04:51:08;1.30;;;0.67;;
48777;SDS011;34578;0.000;0.000;2022-11-21T04:56:09;1.00;;;0.30;;
48777;SDS011;34578;0.000;0.000;2022-11-21T05:01:09;2.90;;;0.50;;
48777;SDS011;34578;0.000;0.000;2022-11-21T05:06:09;1.08;;;0.55;;
48777;SDS011;34578;0.000;0.000;2022-11-21T05:11:10;0.73;;;0.57;;
48777;SDS011;34578;0.000;0.000;2022-11-21T05:16:40;0.98;;;0.47;;
48777;SDS011;34578;0.000;0.000;2022-11-21T05:21:40;1.37;;;0.70;;
48777;SDS011;34578;0.000;0.000;2022-11-21T05:26:40;0.87;;;0.40;;
48777;SDS011;34578;0.000;0.000;2022-11-21T05:31:41;0.57;;;0.40;;
48777;SDS011;34578;0.000;0.000;2022-11-21T05:36:41;2.53;;;0.60;;
48777;SDS011;34578;0.000;0.000;2022-11-21T05:41:42;2.27;;;0.60;;
48777;SDS011;34578;0.000;0.000;2022-11-21T05:46:42;0.27;;;0.23;;
48777;SDS011;34578;0.000;0.000;2022-11-21T05:51:43;4.80;;;1.58;;
48777;SDS011;34578;0.000;0.000;2022-11-21T05:56:43;1.20;;;0.60;;
48777;SDS011;34578;0.000;0.000;2022-11-21T06:01:43;2.20;;;0.87;;
48777;SDS011;34578;0.000;0.000;2022-11-21T06:07:02;0.95;;;0.80;;
48777;SDS011;34578;0.000;0.000;2022-11-21T06:12:04;1.40;;;0.70;;
48777;SDS011;34578;0.000;0.000;2022-11-21T06:17:05;6.20;;;1.30;;
48777;SDS011;34578;0.000;0.000;2022-11-21T06:22:05;1.67;;;0.97;;
48777;SDS011;34578;0.000;0.000;2022-11-21T06:27:05;1.60;;;1.00;;
48777;SDS011;34578;0.000;0.000;2022-11-21T06:32:06;10.87;;;5.20;;
48777;SDS011;34578;0.000;0.000;2022-11-21T06:37:06;9.70;;;6.38;;
48777;SDS011;34578;0.000;0.000;2022-11-21T06:42:06;9.00;;;5.77;;
48777;SDS011;34578;0.000;0.000;2022-11-21T06:47:07;7.97;;;4.73;;
48777;SDS011;34578;0.000;0.000;2022-11-21T06:52:07;8.90;;;4.33;;
48777;SDS011;34578;0.000;0.000;2022-11-21T06:57:08;8.27;;;3.93;;
48777;SDS011;34578;0.000;0.000;2022-11-21T07:02:11;6.40;;;3.80;;
48777;SDS011;34578;0.000;0.000;2022-11-21T07:07:12;5.60;;;2.97;;
48777;SDS011;34578;0.000;0.000;2022-11-21T07:12:12;5.50;;;2.80;;
48777;SDS011;34578;0.000;0.000;2022-11-21T07:17:31;7.10;;;2.90;;
48777;SDS011;34578;0.000;0.000;2022-11-21T07:22:32;6.13;;;2.57;;
48777;SDS011;34578;0.000;0.000;2022-11-21T07:27:32;3.23;;;2.20;;
48777;SDS011;34578;0.000;0.000;2022-11-21T07:32:32;4.23;;;2.20;;
48777;SDS011;34578;0.000;0.000;2022-11-21T07:37:36;4.63;;;2.20;;
48777;SDS011;34578;0.000;0.000;2022-11-21T07:42:37;4.65;;;2.03;;
48777;SDS011;34578;0.000;0.000;2022-11-21T07:47:38;4.00;;;2.00;;
48777;SDS011;34578;0.000;0.000;2022-11-21T07:52:38;3.83;;;2.10;;
48777;SDS011;34578;0.000;0.000;2022-11-21T07:57:38;3.17;;;1.73;;
48777;SDS011;34578;0.000;0.000;2022-11-21T08:02:39;2.83;;;1.67;;
48777;SDS011;34578;0.000;0.000;2022-11-21T08:07:39;2.67;;;1.60;;
48777;SDS011;34578;0.000;0.000;2022-11-21T08:12:39;2.53;;;1.57;;
48777;SDS011;34578;0.000;0.000;2022-11-21T08:17:40;2.60;;;1.50;;
48777;SDS011;34578;0.000;0.000;2022-11-21T08:22:40;1.40;;;1.27;;
48777;SDS011;34578;0.000;0.000;2022-11-21T08:27:41;2.97;;;1.55;;
48777;SDS011;34578;0.000;0.000;2022-11-21T08:32:42;2.95;;;1.52;;
48777;SDS011;34578;0.000;0.000;2022-11-21T08:37:42;3.67;;;1.43;;
48777;SDS011;34578;0.000;0.000;2022-11-21T08:42:42;2.27;;;1.37;;
48777;SDS011;34578;0.000;0.000;2022-11-21T08:47:43;2.90;;;1.30;;
48777;SDS011;34578;0.000;0.000;2022-11-21T08:52:43;4.25;;;1.48;;
48777;SDS011;34578;0.000;0.000;2022-11-21T08:57:43;4.07;;;1.37;;
48777;SDS011;34578;0.000;0.000;2022-11-21T09:02:44;2.03;;;1.03;;
48777;SDS011;34578;0.000;0.000;2022-11-21T09:07:44;2.47;;;1.37;;
48777;SDS011;34578;0.000;0.000;2022-11-21T09:12:44;2.70;;;1.30;;
48777;SDS011;34578;0.000;0.000;2022-11-21T09:17:45;2.93;;;1.63;;
48777;SDS011;34578;0.000;0.000;2022-11-21T09:23:04;1.92;;;1.20;;
48777;SDS011;34578;0.000;0.000;2022-11-21T09:28:06;1.40;;;1.10;;
48777;SDS011;34578;0.000;0.000;2022-11-21T09:33:12;2.35;;;1.45;;
48777;SDS011;34578;0.000;0.000;2022-11-21T09:38:13;2.83;;;1.13;;
48777;SDS011;34578;0.000;0.000;2022-11-21T09:48:45;1.70;;;1.00;;
48777;SDS011;34578;0.000;0.000;2022-11-21T09:53:57;3.47;;;0.82;;
48777;SDS011;34578;0.000;0.000;2022-11-21T09:59:18;1.80;;;0.90;;
48777;SDS011;34578;0.000;0.000;2022-11-21T10:04:28;1.80;;;0.82;;
48777;SDS011;34578;0.000;0.000;2022-11-21T10:14:47;3.67;;;1.00;;
48777;SDS011;34578;0.000;0.000;2022-11-21T10:20:07;4.10;;;1.52;;
48777;SDS011;34578;0.000;0.000;2022-11-21T10:25:13;3.30;;;1.33;;
48777;SDS011;34578;0.000;0.000;2022-11-21T10:30:19;2.88;;;1.20;;
48777;SDS011;34578;0.000;0.000;2022-11-21T10:35:21;2.53;;;1.10;;
48777;SDS011;34578;0.000;0.000;2022-11-21T10:40:37;2.42;;;1.05;;
48777;SDS011;34578;0.000;0.000;2022-11-21T10:45:40;3.58;;;1.30;;
48777;SDS011;34578;0.000;0.000;2022-11-21T10:56:15;3.95;;;1.20;;
48777;SDS011;34578;0.000;0.000;2022-11-21T11:06:26;1.52;;;0.98;;
48777;SDS011;34578;0.000;0.000;2022-11-21T11:11:28;2.25;;;1.02;;
48777;SDS011;34578;0.000;0.000;2022-11-21T11:16:29;3.08;;;1.10;;
48777;SDS011;34578;0.000;0.000;2022-11-21T11:47:57;1.65;;;0.85;;
48777;SDS011;34578;0.000;0.000;2022-11-21T11:53:17;2.95;;;1.15;;
48777;SDS011;34578;0.000;0.000;2022-11-21T12:03:40;4.95;;;1.92;;
48777;SDS011;34578;0.000;0.000;2022-11-21T12:08:53;3.95;;;1.55;;
48777;SDS011;34578;0.000;0.000;2022-11-21T12:13:57;2.38;;;1.00;;
48777;SDS011;34578;0.000;0.000;2022-11-21T12:19:07;1.52;;;0.77;;
48777;SDS011;34578;0.000;0.000;2022-11-21T12:24:13;3.13;;;0.93;;
48777;SDS011;34578;0.000;0.000;2022-11-21T12:39:46;2.85;;;1.02;;
48777;SDS011;34578;0.000;0.000;2022-11-21T12:50:48;2.75;;;1.00;;
48777;SDS011;34578;0.000;0.000;2022-11-21T12:56:31;4.38;;;1.33;;
48777;SDS011;34578;0.000;0.000;2022-11-21T13:01:50;3.37;;;1.00;;
48777;SDS011;34578;0.000;0.000;2022-11-21T13:06:54;5.10;;;1.20;;
48777;SDS011;34578;0.000;0.000;2022-11-21T13:11:59;12.82;;;1.50;;
48777;SDS011;34578;0.000;0.000;2022-11-21T13:48:20;2.10;;;1.17;;
48777;SDS011;34578;0.000;0.000;2022-11-21T14:03:53;3.92;;;1.05;;
48777;SDS011;34578;0.000;0.000;2022-11-21T14:14:11;5.80;;;1.23;;
48777;SDS011;34578;0.000;0.000;2022-11-21T14:19:42;4.68;;;1.08;;
48777;SDS011;34578;0.000;0.000;2022-11-21T14:24:42;2.47;;;1.20;;
48777;SDS011;34578;0.000;0.000;2022-11-21T14:29:44;3.50;;;1.08;;
48777;SDS011;34578;0.000;0.000;2022-11-21T14:34:44;2.33;;;1.10;;
48777;SDS011;34578;0.000;0.000;2022-11-21T14:39:45;2.27;;;0.90;;
48777;SDS011;34578;0.000;0.000;2022-11-21T14:44:47;2.03;;;1.00;;
48777;SDS011;34578;0.000;0.000;2022-11-21T14:50:19;2.72;;;1.25;;
48777;SDS011;34578;0.000;0.000;2022-11-21T14:55:29;2.67;;;1.52;;
48777;SDS011;34578;0.000;0.000;2022-11-21T15:00:30;2.28;;;1.40;;
48777;SDS011;34578;0.000;0.000;2022-11-21T15:05:31;4.53;;;1.20;;
48777;SDS011;34578;0.000;0.000;2022-11-21T15:10:33;2.33;;;1.25;;
48777;SDS011;34578;0.000;0.000;2022-11-21T15:15:38;2.22;;;1.20;;
48777;SDS011;34578;0.000;0.000;2022-11-21T15:20:50;2.03;;;1.10;;
48777;SDS011;34578;0.000;0.000;2022-11-21T15:25:52;3.92;;;1.20;;
48777;SDS011;34578;0.000;0.000;2022-11-21T15:36:20;3.03;;;1.27;;
48777;SDS011;34578;0.000;0.000;2022-11-21T15:41:30;4.15;;;1.35;;
48777;SDS011;34578;0.000;0.000;2022-11-21T15:46:32;3.95;;;1.13;;
48777;SDS011;34578;0.000;0.000;2022-11-21T15:51:43;3.20;;;1.05;;
48777;SDS011;34578;0.000;0.000;2022-11-21T15:56:45;2.97;;;1.38;;
48777;SDS011;34578;0.000;0.000;2022-11-21T16:01:46;9.20;;;1.63;;
48777;SDS011;34578;0.000;0.000;2022-11-21T16:06:46;6.50;;;1.53;;
48777;SDS011;34578;0.000;0.000;2022-11-21T16:11:47;2.50;;;1.30;;
48777;SDS011;34578;0.000;0.000;2022-11-21T16:16:47;7.10;;;1.60;;
48777;SDS011;34578;0.000;0.000;2022-11-21T16:21:47;3.70;;;1.40;;
48777;SDS011;34578;0.000;0.000;2022-11-21T16:26:48;5.77;;;1.60;;
48777;SDS011;34578;0.000;0.000;2022-11-21T16:31:52;5.20;;;1.40;;
48777;SDS011;34578;0.000;0.000;2022-11-21T16:36:54;2.38;;;1.33;;
48777;SDS011;34578;0.000;0.000;2022-11-21T16:41:55;1.67;;;1.30;;
48777;SDS011;34578;0.000;0.000;2022-11-21T16:46:55;4.33;;;1.40;;
48777;SDS011;34578;0.000;0.000;2022-11-21T16:51:56;4.65;;;1.50;;
48777;SDS011;34578;0.000;0.000;2022-11-21T16:56:58;2.78;;;1.08;;
48777;SDS011;34578;0.000;0.000;2022-11-21T17:01:58;4.27;;;1.30;;
48777;SDS011;34578;0.000;0.000;2022-11-21T17:06:59;2.70;;;1.13;;
48777;SDS011;34578;0.000;0.000;2022-11-21T17:11:59;2.03;;;0.90;;
48777;SDS011;34578;0.000;0.000;2022-11-21T17:17:00;4.00;;;1.50;;
48777;SDS011;34578;0.000;0.000;2022-11-21T17:22:00;2.23;;;1.40;;
48777;SDS011;34578;0.000;0.000;2022-11-21T17:27:01;5.00;;;1.33;;
48777;SDS011;34578;0.000;0.000;2022-11-21T17:32:01;4.13;;;1.92;;
48777;SDS011;34578;0.000;0.000;2022-11-21T17:37:02;4.18;;;1.75;;
48777;SDS011;34578;0.000;0.000;2022-11-21T17:42:02;2.90;;;1.73;;
48777;SDS011;34578;0.000;0.000;2022-11-21T17:47:03;5.30;;;2.20;;
48777;SDS011;34578;0.000;0.000;2022-11-21T17:52:04;6.03;;;2.33;;
48777;SDS011;34578;0.000;0.000;2022-11-21T17:57:05;4.65;;;2.30;;
48777;SDS011;34578;0.000;0.000;2022-11-21T18:02:05;4.20;;;2.65;;
48777;SDS011;34578;0.000;0.000;2022-11-21T18:07:06;5.53;;;3.33;;
48777;SDS011;34578;0.000;0.000;2022-11-21T18:12:06;13.15;;;7.40;;
48777;SDS011;34578;0.000;0.000;2022-11-21T18:17:07;17.00;;;8.73;;
48777;SDS011;34578;0.000;0.000;2022-11-21T18:22:07;15.03;;;9.10;;
48777;SDS011;34578;0.000;0.000;2022-11-21T18:27:07;15.03;;;8.40;;
48777;SDS011;34578;0.000;0.000;2022-11-21T18:32:08;16.20;;;9.05;;
48777;SDS011;34578;0.000;0.000;2022-11-21T18:37:08;14.13;;;9.70;;
48777;SDS011;34578;0.000;0.000;2022-11-21T18:42:09;16.60;;;9.95;;
48777;SDS011;34578;0.000;0.000;2022-11-21T18:47:10;13.40;;;8.53;;
48777;SDS011;34578;0.000;0.000;2022-11-21T18:52:10;23.77;;;13.03;;
48777;SDS011;34578;0.000;0.000;2022-11-21T18:57:10;15.00;;;9.57;;
48777;SDS011;34578;0.000;0.000;2022-11-21T19:02:11;17.55;;;10.05;;
48777;SDS011;34578;0.000;0.000;2022-11-21T19:07:11;17.83;;;9.52;;
48777;SDS011;34578;0.000;0.000;2022-11-21T19:12:12;14.80;;;8.97;;
48777;SDS011;34578;0.000;0.000;2022-11-21T19:17:12;21.07;;;11.97;;
48777;SDS011;34578;0.000;0.000;2022-11-21T19:22:13;21.43;;;11.77;;
48777;SDS011;34578;0.000;0.000;2022-11-21T19:27:13;16.63;;;10.07;;
48777;SDS011;34578;0.000;0.000;2022-11-21T19:32:13;15.20;;;8.80;;
48777;SDS011;34578;0.000;0.000;2022-11-21T19:37:14;14.88;;;8.38;;
48777;SDS011;34578;0.000;0.000;2022-11-21T19:42:14;12.80;;;8.93;;
48777;SDS011;34578;0.000;0.000;2022-11-21T19:47:15;15.02;;;9.15;;
48777;SDS011;34578;0.000;0.000;2022-11-21T19:52:15;11.40;;;7.67;;
48777;SDS011;34578;0.000;0.000;2022-11-21T19:57:15;12.80;;;8.50;;
48777;SDS011;34578;0.000;0.000;2022-11-21T20:02:16;14.43;;;8.07;;
48777;SDS011;34578;0.000;0.000;2022-11-21T20:07:18;12.40;;;7.55;;
48777;SDS011;34578;0.000;0.000;2022-11-21T20:12:19;10.00;;;6.22;;
48777;SDS011;34578;0.000;0.000;2022-11-21T20:17:19;12.07;;;8.88;;
48777;SDS011;34578;0.000;0.000;2022-11-21T20:22:20;15.10;;;9.33;;
48777;SDS011;34578;0.000;0.000;2022-11-21T20:27:20;15.57;;;10.40;;
48777;SDS011;34578;0.000;0.000;2022-11-21T20:32:20;20.37;;;12.57;;
48777;SDS011;34578;0.000;0.000;2022-11-21T20:37:21;12.13;;;9.07;;
48777;SDS011;34578;0.000;0.000;2022-11-21T20:42:21;15.00;;;9.60;;
48777;SDS011;34578;0.000;0.000;2022-11-21T20:47:21;17.97;;;11.63;;
48777;SDS011;34578;0.000;0.000;2022-11-21T20:52:22;19.20;;;12.52;;
48777;SDS011;34578;0.000;0.000;2022-11-21T20:57:22;18.60;;;12.10;;
48777;SDS011;34578;0.000;0.000;2022-11-21T21:02:23;15.50;;;10.23;;
48777;SDS011;34578;0.000;0.000;2022-11-21T21:07:23;17.23;;;10.73;;
48777;SDS011;34578;0.000;0.000;2022-11-21T21:12:23;15.53;;;9.93;;
48777;SDS011;34578;0.000;0.000;2022-11-21T21:17:24;15.07;;;9.57;;
48777;SDS011;34578;0.000;0.000;2022-11-21T21:22:26;14.17;;;9.67;;
48777;SDS011;34578;0.000;0.000;2022-11-21T21:27:27;14.57;;;8.60;;
48777;SDS011;34578;0.000;0.000;2022-11-21T21:32:27;13.17;;;8.70;;
48777;SDS011;34578;0.000;0.000;2022-11-21T21:37:28;12.53;;;7.50;;
48777;SDS011;34578;0.000;0.000;2022-11-21T21:42:28;13.00;;;8.77;;
48777;SDS011;34578;0.000;0.000;2022-11-21T21:47:28;12.33;;;8.27;;
48777;SDS011;34578;0.000;0.000;2022-11-21T21:52:29;10.63;;;7.47;;
48777;SDS011;34578;0.000;0.000;2022-11-21T21:57:29;12.53;;;7.87;;
48777;SDS011;34578;0.000;0.000;2022-11-21T22:02:30;10.20;;;7.28;;
48777;SDS011;34578;0.000;0.000;2022-11-21T22:07:30;9.87;;;7.03;;
48777;SDS011;34578;0.000;0.000;2022-11-21T22:12:31;13.40;;;7.35;;
48777;SDS011;34578;0.000;0.000;2022-11-21T22:17:31;9.97;;;6.27;;
48777;SDS011;34578;0.000;0.000;2022-11-21T22:22:31;10.43;;;6.07;;
48777;SDS011;34578;0.000;0.000;2022-11-21T22:27:32;9.47;;;6.60;;
48777;SDS011;34578;0.000;0.000;2022-11-21T22:32:32;9.07;;;6.30;;
48777;SDS011;34578;0.000;0.000;2022-11-21T22:37:32;8.67;;;5.57;;
48777;SDS011;34578;0.000;0.000;2022-11-21T22:42:33;8.77;;;5.70;;
48777;SDS011;34578;0.000;0.000;2022-11-21T22:47:33;8.90;;;6.03;;
48777;SDS011;34578;0.000;0.000;2022-11-21T22:52:33;10.23;;;5.67;;
48777;SDS011;34578;0.000;0.000;2022-11-21T22:57:34;6.07;;;4.90;;
48777;SDS011;34578;0.000;0.000;2022-11-21T23:02:34;8.93;;;4.90;;
48777;SDS011;34578;0.000;0.000;2022-11-21T23:07:34;6.67;;;4.57;;
48777;SDS011;34578;0.000;0.000;2022-11-21T23:12:35;7.93;;;4.97;;
48777;SDS011;34578;0.000;0.000;2022-11-21T23:17:35;9.77;;;5.10;;
48777;SDS011;34578;0.000;0.000;2022-11-21T23:22:36;8.48;;;4.95;;
48777;SDS011;34578;0.000;0.000;2022-11-21T23:27:36;8.07;;;5.00;;
48777;SDS011;34578;0.000;0.000;2022-11-21T23:32:37;12.63;;;3.73;;
48777;SDS011;34578;0.000;0.000;2022-11-21T23:37:37;8.07;;;4.57;;
48777;SDS011;34578;0.000;0.000;2022-11-21T23:42:37;5.57;;;4.40;;
48777;SDS011;34578;0.000;0.000;2022-11-21T23:47:38;5.20;;;3.90;;
48777;SDS011;34578;0.000;0.000;2022-11-21T23:52:38;7.53;;;3.90;;
48777;SDS011;34578;0.000;0.000;2022-11-21T23:57:38;5.37;;;3.07;;
